sensor_id;sensor_type;location;lat;lon;timestamp;P1;durP1;ratioP1;P2;durP2;ratioP2
49758;SDS011;35654;46.080;11.118;2023-01-29T00:02:03;26.63;;;11.38;;
49758;SDS011;35654;46.080;11.118;2023-01-29T00:04:30;23.63;;;11.00;;
49758;SDS011;35654;46.080;11.118;2023-01-29T00:06:57;30.10;;;12.75;;
49758;SDS011;35654;46.080;11.118;2023-01-29T00:09:24;30.23;;;12.48;;
49758;SDS011;35654;46.080;11.118;2023-01-29T00:11:51;32.60;;;12.15;;
49758;SDS011;35654;46.080;11.118;2023-01-29T00:14:18;26.73;;;12.35;;
49758;SDS011;35654;46.080;11.118;2023-01-29T00:16:44;26.25;;;12.20;;
49758;SDS011;35654;46.080;11.118;2023-01-29T00:19:11;32.58;;;12.88;;
49758;SDS011;35654;46.080;11.118;2023-01-29T00:21:37;28.23;;;13.10;;
49758;SDS011;35654;46.080;11.118;2023-01-29T00:24:04;31.48;;;13.02;;
49758;SDS011;35654;46.080;11.118;2023-01-29T00:26:31;28.45;;;13.18;;
49758;SDS011;35654;46.080;11.118;2023-01-29T00:28:57;32.38;;;13.15;;
49758;SDS011;35654;46.080;11.118;2023-01-29T00:31:25;34.53;;;15.07;;
49758;SDS011;35654;46.080;11.118;2023-01-29T00:33:52;42.20;;;15.60;;
49758;SDS011;35654;46.080;11.118;2023-01-29T00:36:19;45.60;;;17.13;;
49758;SDS011;35654;46.080;11.118;2023-01-29T00:38:47;43.60;;;16.08;;
49758;SDS011;35654;46.080;11.118;2023-01-29T00:41:27;35.83;;;14.90;;
49758;SDS011;35654;46.080;11.118;2023-01-29T00:44:16;37.13;;;14.70;;
49758;SDS011;35654;46.080;11.118;2023-01-29T00:47:02;33.97;;;14.90;;
49758;SDS011;35654;46.080;11.118;2023-01-29T00:49:30;37.65;;;15.98;;
49758;SDS011;35654;46.080;11.118;2023-01-29T00:54:41;36.63;;;14.18;;
49758;SDS011;35654;46.080;11.118;2023-01-29T00:57:08;37.45;;;13.45;;
49758;SDS011;35654;46.080;11.118;2023-01-29T00:59:35;35.35;;;14.90;;
49758;SDS011;35654;46.080;11.118;2023-01-29T01:02:01;33.88;;;14.32;;
49758;SDS011;35654;46.080;11.118;2023-01-29T01:04:47;37.78;;;14.65;;
49758;SDS011;35654;46.080;11.118;2023-01-29T01:09:39;32.47;;;13.95;;
49758;SDS011;35654;46.080;11.118;2023-01-29T01:12:25;31.02;;;13.48;;
49758;SDS011;35654;46.080;11.118;2023-01-29T01:14:53;31.23;;;13.90;;
49758;SDS011;35654;46.080;11.118;2023-01-29T01:19:47;28.48;;;12.00;;
49758;SDS011;35654;46.080;11.118;2023-01-29T01:22:12;29.73;;;11.95;;
49758;SDS011;35654;46.080;11.118;2023-01-29T01:24:39;25.97;;;11.30;;
49758;SDS011;35654;46.080;11.118;2023-01-29T01:27:06;27.98;;;12.15;;
49758;SDS011;35654;46.080;11.118;2023-01-29T01:31:59;36.33;;;13.63;;
49758;SDS011;35654;46.080;11.118;2023-01-29T01:34:26;31.58;;;13.95;;
49758;SDS011;35654;46.080;11.118;2023-01-29T01:36:53;29.92;;;12.02;;
49758;SDS011;35654;46.080;11.118;2023-01-29T01:39:24;31.35;;;13.02;;
49758;SDS011;35654;46.080;11.118;2023-01-29T01:41:50;27.50;;;13.00;;
49758;SDS011;35654;46.080;11.118;2023-01-29T01:50:24;29.55;;;11.38;;
49758;SDS011;35654;46.080;11.118;2023-01-29T01:52:57;26.08;;;12.13;;
49758;SDS011;35654;46.080;11.118;2023-01-29T01:55:30;25.23;;;11.38;;
49758;SDS011;35654;46.080;11.118;2023-01-29T01:58:09;26.65;;;11.18;;
49758;SDS011;35654;46.080;11.118;2023-01-29T02:00:40;26.52;;;11.73;;
49758;SDS011;35654;46.080;11.118;2023-01-29T02:03:07;24.17;;;11.30;;
49758;SDS011;35654;46.080;11.118;2023-01-29T02:05:55;25.45;;;11.10;;
49758;SDS011;35654;46.080;11.118;2023-01-29T02:08:53;27.35;;;11.43;;
49758;SDS011;35654;46.080;11.118;2023-01-29T02:14:18;22.95;;;10.57;;
49758;SDS011;35654;46.080;11.118;2023-01-29T02:16:46;22.60;;;10.52;;
49758;SDS011;35654;46.080;11.118;2023-01-29T02:19:31;22.58;;;10.18;;
49758;SDS011;35654;46.080;11.118;2023-01-29T02:22:11;22.60;;;10.00;;
49758;SDS011;35654;46.080;11.118;2023-01-29T02:31:40;28.27;;;11.00;;
49758;SDS011;35654;46.080;11.118;2023-01-29T02:36:46;28.67;;;11.68;;
49758;SDS011;35654;46.080;11.118;2023-01-29T02:39:32;29.00;;;11.73;;
49758;SDS011;35654;46.080;11.118;2023-01-29T02:45:18;25.10;;;10.82;;
49758;SDS011;35654;46.080;11.118;2023-01-29T02:47:58;27.05;;;11.70;;
49758;SDS011;35654;46.080;11.118;2023-01-29T02:50:31;24.45;;;11.43;;
49758;SDS011;35654;46.080;11.118;2023-01-29T02:55:57;25.88;;;11.60;;
49758;SDS011;35654;46.080;11.118;2023-01-29T02:58:38;26.98;;;10.95;;
49758;SDS011;35654;46.080;11.118;2023-01-29T03:01:28;24.65;;;10.07;;
49758;SDS011;35654;46.080;11.118;2023-01-29T03:04:03;26.83;;;11.48;;
49758;SDS011;35654;46.080;11.118;2023-01-29T03:06:50;25.42;;;11.65;;
49758;SDS011;35654;46.080;11.118;2023-01-29T03:09:27;28.65;;;11.18;;
49758;SDS011;35654;46.080;11.118;2023-01-29T03:12:04;33.47;;;11.65;;
49758;SDS011;35654;46.080;11.118;2023-01-29T03:14:53;22.98;;;10.18;;
49758;SDS011;35654;46.080;11.118;2023-01-29T03:17:56;26.35;;;10.20;;
49758;SDS011;35654;46.080;11.118;2023-01-29T03:20:33;23.08;;;11.05;;
49758;SDS011;35654;46.080;11.118;2023-01-29T03:23:06;27.95;;;11.77;;
49758;SDS011;35654;46.080;11.118;2023-01-29T03:25:36;24.42;;;10.48;;
49758;SDS011;35654;46.080;11.118;2023-01-29T03:28:24;22.10;;;9.75;;
49758;SDS011;35654;46.080;11.118;2023-01-29T03:31:11;20.08;;;9.93;;
49758;SDS011;35654;46.080;11.118;2023-01-29T03:37:14;22.85;;;10.07;;
49758;SDS011;35654;46.080;11.118;2023-01-29T03:39:54;22.08;;;10.77;;
49758;SDS011;35654;46.080;11.118;2023-01-29T03:51:58;25.67;;;10.68;;
49758;SDS011;35654;46.080;11.118;2023-01-29T04:00:49;23.75;;;9.80;;
49758;SDS011;35654;46.080;11.118;2023-01-29T04:03:22;22.17;;;9.35;;
49758;SDS011;35654;46.080;11.118;2023-01-29T04:05:56;19.52;;;10.10;;
49758;SDS011;35654;46.080;11.118;2023-01-29T04:08:50;22.17;;;9.32;;
49758;SDS011;35654;46.080;11.118;2023-01-29T04:11:49;22.42;;;10.00;;
49758;SDS011;35654;46.080;11.118;2023-01-29T04:14:22;24.08;;;8.82;;
49758;SDS011;35654;46.080;11.118;2023-01-29T04:16:53;22.23;;;9.75;;
49758;SDS011;35654;46.080;11.118;2023-01-29T04:19:26;20.02;;;9.65;;
49758;SDS011;35654;46.080;11.118;2023-01-29T04:22:00;23.15;;;8.82;;
49758;SDS011;35654;46.080;11.118;2023-01-29T04:32:53;21.88;;;8.60;;
49758;SDS011;35654;46.080;11.118;2023-01-29T04:38:43;20.67;;;8.88;;
49758;SDS011;35654;46.080;11.118;2023-01-29T04:41:22;23.88;;;9.57;;
49758;SDS011;35654;46.080;11.118;2023-01-29T04:49:44;27.98;;;16.38;;
49758;SDS011;35654;46.080;11.118;2023-01-29T04:55:18;18.55;;;9.40;;
49758;SDS011;35654;46.080;11.118;2023-01-29T05:00:52;23.27;;;8.98;;
49758;SDS011;35654;46.080;11.118;2023-01-29T05:03:20;19.85;;;8.80;;
49758;SDS011;35654;46.080;11.118;2023-01-29T05:05:50;23.25;;;9.82;;
49758;SDS011;35654;46.080;11.118;2023-01-29T05:08:21;18.55;;;8.45;;
49758;SDS011;35654;46.080;11.118;2023-01-29T05:10:51;18.05;;;8.35;;
49758;SDS011;35654;46.080;11.118;2023-01-29T05:13:19;18.75;;;8.38;;
49758;SDS011;35654;46.080;11.118;2023-01-29T05:18:43;19.10;;;8.43;;
49758;SDS011;35654;46.080;11.118;2023-01-29T05:21:10;18.97;;;8.57;;
49758;SDS011;35654;46.080;11.118;2023-01-29T05:23:37;19.05;;;8.20;;
49758;SDS011;35654;46.080;11.118;2023-01-29T05:26:04;20.00;;;8.48;;
49758;SDS011;35654;46.080;11.118;2023-01-29T05:28:31;19.60;;;8.70;;
49758;SDS011;35654;46.080;11.118;2023-01-29T05:30:58;19.02;;;8.93;;
49758;SDS011;35654;46.080;11.118;2023-01-29T05:35:56;20.00;;;8.43;;
49758;SDS011;35654;46.080;11.118;2023-01-29T05:38:24;17.10;;;9.18;;
49758;SDS011;35654;46.080;11.118;2023-01-29T05:40:51;24.05;;;9.70;;
49758;SDS011;35654;46.080;11.118;2023-01-29T05:43:22;22.55;;;9.25;;
49758;SDS011;35654;46.080;11.118;2023-01-29T05:45:56;19.25;;;8.77;;
49758;SDS011;35654;46.080;11.118;2023-01-29T05:48:24;21.63;;;9.18;;
49758;SDS011;35654;46.080;11.118;2023-01-29T05:50:58;19.40;;;8.88;;
49758;SDS011;35654;46.080;11.118;2023-01-29T05:53:27;18.60;;;8.25;;
49758;SDS011;35654;46.080;11.118;2023-01-29T05:55:54;21.23;;;9.10;;
49758;SDS011;35654;46.080;11.118;2023-01-29T05:58:24;20.52;;;8.65;;
49758;SDS011;35654;46.080;11.118;2023-01-29T06:00:50;19.27;;;8.63;;
49758;SDS011;35654;46.080;11.118;2023-01-29T06:03:17;18.92;;;9.10;;
49758;SDS011;35654;46.080;11.118;2023-01-29T06:05:43;20.77;;;9.25;;
49758;SDS011;35654;46.080;11.118;2023-01-29T06:08:10;18.40;;;8.32;;
49758;SDS011;35654;46.080;11.118;2023-01-29T06:10:37;21.92;;;9.18;;
49758;SDS011;35654;46.080;11.118;2023-01-29T06:13:04;20.17;;;8.68;;
49758;SDS011;35654;46.080;11.118;2023-01-29T06:15:32;24.05;;;9.20;;
49758;SDS011;35654;46.080;11.118;2023-01-29T06:20:25;22.48;;;8.32;;
49758;SDS011;35654;46.080;11.118;2023-01-29T06:25:18;17.50;;;8.55;;
49758;SDS011;35654;46.080;11.118;2023-01-29T06:27:44;20.42;;;8.27;;
49758;SDS011;35654;46.080;11.118;2023-01-29T06:30:11;16.48;;;8.05;;
49758;SDS011;35654;46.080;11.118;2023-01-29T06:32:39;16.95;;;8.05;;
49758;SDS011;35654;46.080;11.118;2023-01-29T06:35:05;22.88;;;9.40;;
49758;SDS011;35654;46.080;11.118;2023-01-29T06:37:33;18.00;;;8.38;;
49758;SDS011;35654;46.080;11.118;2023-01-29T06:39:59;20.00;;;8.85;;
49758;SDS011;35654;46.080;11.118;2023-01-29T06:42:26;22.60;;;8.35;;
49758;SDS011;35654;46.080;11.118;2023-01-29T06:44:53;21.17;;;8.77;;
49758;SDS011;35654;46.080;11.118;2023-01-29T06:47:21;18.75;;;8.30;;
49758;SDS011;35654;46.080;11.118;2023-01-29T06:49:49;20.35;;;8.77;;
49758;SDS011;35654;46.080;11.118;2023-01-29T06:52:16;17.65;;;8.23;;
49758;SDS011;35654;46.080;11.118;2023-01-29T06:54:43;18.10;;;7.90;;
49758;SDS011;35654;46.080;11.118;2023-01-29T06:57:09;18.83;;;8.18;;
49758;SDS011;35654;46.080;11.118;2023-01-29T06:59:35;22.10;;;8.77;;
49758;SDS011;35654;46.080;11.118;2023-01-29T07:02:00;21.40;;;8.73;;
49758;SDS011;35654;46.080;11.118;2023-01-29T07:04:27;19.80;;;8.63;;
49758;SDS011;35654;46.080;11.118;2023-01-29T07:06:54;20.50;;;9.40;;
49758;SDS011;35654;46.080;11.118;2023-01-29T07:09:21;20.55;;;8.88;;
49758;SDS011;35654;46.080;11.118;2023-01-29T07:11:48;16.17;;;8.45;;
49758;SDS011;35654;46.080;11.118;2023-01-29T07:16:41;18.15;;;7.90;;
49758;SDS011;35654;46.080;11.118;2023-01-29T07:19:07;19.00;;;8.43;;
49758;SDS011;35654;46.080;11.118;2023-01-29T07:21:34;17.17;;;8.57;;
49758;SDS011;35654;46.080;11.118;2023-01-29T07:24:00;18.40;;;8.13;;
49758;SDS011;35654;46.080;11.118;2023-01-29T07:26:27;19.70;;;8.25;;
49758;SDS011;35654;46.080;11.118;2023-01-29T07:31:18;19.63;;;8.95;;
49758;SDS011;35654;46.080;11.118;2023-01-29T07:33:44;24.80;;;9.83;;
49758;SDS011;35654;46.080;11.118;2023-01-29T07:36:11;21.55;;;9.32;;
49758;SDS011;35654;46.080;11.118;2023-01-29T07:38:41;20.55;;;9.45;;
49758;SDS011;35654;46.080;11.118;2023-01-29T07:41:08;22.95;;;9.65;;
49758;SDS011;35654;46.080;11.118;2023-01-29T07:43:37;20.00;;;9.23;;
49758;SDS011;35654;46.080;11.118;2023-01-29T07:46:03;22.20;;;8.90;;
49758;SDS011;35654;46.080;11.118;2023-01-29T07:48:30;21.55;;;9.68;;
49758;SDS011;35654;46.080;11.118;2023-01-29T07:50:57;25.13;;;10.32;;
49758;SDS011;35654;46.080;11.118;2023-01-29T07:53:24;22.92;;;9.95;;
49758;SDS011;35654;46.080;11.118;2023-01-29T07:55:52;22.52;;;9.95;;
49758;SDS011;35654;46.080;11.118;2023-01-29T07:58:17;19.13;;;8.80;;
49758;SDS011;35654;46.080;11.118;2023-01-29T08:00:43;24.03;;;9.47;;
49758;SDS011;35654;46.080;11.118;2023-01-29T08:03:13;21.17;;;10.00;;
49758;SDS011;35654;46.080;11.118;2023-01-29T08:05:41;21.13;;;9.57;;
49758;SDS011;35654;46.080;11.118;2023-01-29T08:08:07;18.10;;;9.30;;
49758;SDS011;35654;46.080;11.118;2023-01-29T08:10:34;23.60;;;9.50;;
49758;SDS011;35654;46.080;11.118;2023-01-29T08:13:00;21.98;;;9.32;;
49758;SDS011;35654;46.080;11.118;2023-01-29T08:15:26;22.23;;;9.60;;
49758;SDS011;35654;46.080;11.118;2023-01-29T08:17:53;24.77;;;9.82;;
49758;SDS011;35654;46.080;11.118;2023-01-29T08:20:19;21.50;;;10.20;;
49758;SDS011;35654;46.080;11.118;2023-01-29T08:22:45;21.75;;;10.00;;
49758;SDS011;35654;46.080;11.118;2023-01-29T08:25:12;21.00;;;9.57;;
49758;SDS011;35654;46.080;11.118;2023-01-29T08:27:38;22.75;;;9.88;;
49758;SDS011;35654;46.080;11.118;2023-01-29T08:30:04;21.30;;;9.70;;
49758;SDS011;35654;46.080;11.118;2023-01-29T08:34:56;23.20;;;10.40;;
49758;SDS011;35654;46.080;11.118;2023-01-29T08:37:21;21.00;;;10.37;;
49758;SDS011;35654;46.080;11.118;2023-01-29T08:39:47;19.33;;;10.17;;
49758;SDS011;35654;46.080;11.118;2023-01-29T08:42:12;21.47;;;9.93;;
49758;SDS011;35654;46.080;11.118;2023-01-29T08:44:37;21.20;;;9.93;;
49758;SDS011;35654;46.080;11.118;2023-01-29T08:47:03;23.00;;;10.43;;
49758;SDS011;35654;46.080;11.118;2023-01-29T08:49:28;25.60;;;11.63;;
49758;SDS011;35654;46.080;11.118;2023-01-29T08:51:54;33.23;;;12.73;;
49758;SDS011;35654;46.080;11.118;2023-01-29T08:54:22;33.38;;;14.38;;
49758;SDS011;35654;46.080;11.118;2023-01-29T08:56:49;24.40;;;10.80;;
49758;SDS011;35654;46.080;11.118;2023-01-29T08:59:16;24.30;;;10.10;;
49758;SDS011;35654;46.080;11.118;2023-01-29T09:04:10;18.60;;;9.52;;
49758;SDS011;35654;46.080;11.118;2023-01-29T09:06:37;18.15;;;9.63;;
49758;SDS011;35654;46.080;11.118;2023-01-29T09:09:03;24.85;;;9.15;;
49758;SDS011;35654;46.080;11.118;2023-01-29T09:11:30;18.20;;;8.48;;
49758;SDS011;35654;46.080;11.118;2023-01-29T09:13:56;17.15;;;7.35;;
49758;SDS011;35654;46.080;11.118;2023-01-29T09:16:23;13.07;;;6.78;;
49758;SDS011;35654;46.080;11.118;2023-01-29T09:23:44;14.60;;;7.28;;
49758;SDS011;35654;46.080;11.118;2023-01-29T09:26:11;15.18;;;6.70;;
49758;SDS011;35654;46.080;11.118;2023-01-29T09:28:37;19.98;;;8.70;;
49758;SDS011;35654;46.080;11.118;2023-01-29T09:31:04;13.93;;;6.78;;
49758;SDS011;35654;46.080;11.118;2023-01-29T09:35:57;15.75;;;6.32;;
49758;SDS011;35654;46.080;11.118;2023-01-29T09:38:23;15.80;;;7.13;;
49758;SDS011;35654;46.080;11.118;2023-01-29T09:49:06;12.07;;;6.13;;
49758;SDS011;35654;46.080;11.118;2023-01-29T09:51:40;10.85;;;5.97;;
49758;SDS011;35654;46.080;11.118;2023-01-29T09:54:30;11.95;;;6.68;;
49758;SDS011;35654;46.080;11.118;2023-01-29T09:57:01;13.77;;;6.68;;
49758;SDS011;35654;46.080;11.118;2023-01-29T09:59:29;14.82;;;6.65;;
49758;SDS011;35654;46.080;11.118;2023-01-29T10:02:09;14.18;;;7.22;;
49758;SDS011;35654;46.080;11.118;2023-01-29T10:10:29;13.35;;;7.18;;
49758;SDS011;35654;46.080;11.118;2023-01-29T10:12:59;15.18;;;7.35;;
49758;SDS011;35654;46.080;11.118;2023-01-29T10:27:13;10.43;;;5.88;;
49758;SDS011;35654;46.080;11.118;2023-01-29T10:29:42;18.50;;;8.35;;
49758;SDS011;35654;46.080;11.118;2023-01-29T10:32:17;25.67;;;10.73;;
49758;SDS011;35654;46.080;11.118;2023-01-29T10:34:49;19.70;;;8.07;;
49758;SDS011;35654;46.080;11.118;2023-01-29T10:37:39;27.80;;;11.93;;
49758;SDS011;35654;46.080;11.118;2023-01-29T10:40:15;15.13;;;5.85;;
49758;SDS011;35654;46.080;11.118;2023-01-29T10:42:52;13.05;;;5.82;;
49758;SDS011;35654;46.080;11.118;2023-01-29T10:50:49;10.05;;;5.05;;
49758;SDS011;35654;46.080;11.118;2023-01-29T11:02:42;8.88;;;4.88;;
49758;SDS011;35654;46.080;11.118;2023-01-29T11:05:35;8.27;;;4.72;;
49758;SDS011;35654;46.080;11.118;2023-01-29T11:08:22;9.20;;;4.82;;
49758;SDS011;35654;46.080;11.118;2023-01-29T11:21:18;7.80;;;4.50;;
49758;SDS011;35654;46.080;11.118;2023-01-29T11:23:43;9.23;;;4.67;;
49758;SDS011;35654;46.080;11.118;2023-01-29T11:26:11;6.28;;;4.50;;
49758;SDS011;35654;46.080;11.118;2023-01-29T11:28:39;8.27;;;5.03;;
49758;SDS011;35654;46.080;11.118;2023-01-29T11:34:20;7.47;;;4.75;;
49758;SDS011;35654;46.080;11.118;2023-01-29T11:37:00;9.77;;;4.80;;
49758;SDS011;35654;46.080;11.118;2023-01-29T11:39:43;6.65;;;4.60;;
49758;SDS011;35654;46.080;11.118;2023-01-29T11:42:21;7.70;;;4.20;;
49758;SDS011;35654;46.080;11.118;2023-01-29T11:44:48;8.07;;;4.83;;
49758;SDS011;35654;46.080;11.118;2023-01-29T11:47:27;6.95;;;4.22;;
49758;SDS011;35654;46.080;11.118;2023-01-29T11:49:56;10.50;;;7.07;;
49758;SDS011;35654;46.080;11.118;2023-01-29T11:52:36;10.07;;;4.93;;
49758;SDS011;35654;46.080;11.118;2023-01-29T11:55:18;7.18;;;4.80;;
49758;SDS011;35654;46.080;11.118;2023-01-29T11:57:54;8.68;;;4.88;;
49758;SDS011;35654;46.080;11.118;2023-01-29T12:00:27;6.40;;;4.70;;
49758;SDS011;35654;46.080;11.118;2023-01-29T12:05:53;6.93;;;4.30;;
49758;SDS011;35654;46.080;11.118;2023-01-29T12:08:21;5.90;;;4.30;;
49758;SDS011;35654;46.080;11.118;2023-01-29T12:10:48;10.63;;;4.47;;
49758;SDS011;35654;46.080;11.118;2023-01-29T12:15:40;8.07;;;4.97;;
49758;SDS011;35654;46.080;11.118;2023-01-29T12:20:57;7.90;;;4.95;;
49758;SDS011;35654;46.080;11.118;2023-01-29T12:23:30;34.15;;;20.92;;
49758;SDS011;35654;46.080;11.118;2023-01-29T12:26:10;8.90;;;5.22;;
49758;SDS011;35654;46.080;11.118;2023-01-29T12:34:49;8.30;;;4.80;;
49758;SDS011;35654;46.080;11.118;2023-01-29T12:40:24;6.18;;;4.50;;
49758;SDS011;35654;46.080;11.118;2023-01-29T12:42:56;45.88;;;28.02;;
49758;SDS011;35654;46.080;11.118;2023-01-29T12:45:27;9.00;;;4.80;;
49758;SDS011;35654;46.080;11.118;2023-01-29T12:48:00;8.73;;;4.95;;
49758;SDS011;35654;46.080;11.118;2023-01-29T12:55:47;7.75;;;4.68;;
49758;SDS011;35654;46.080;11.118;2023-01-29T13:01:26;7.18;;;4.78;;
49758;SDS011;35654;46.080;11.118;2023-01-29T13:04:04;6.50;;;4.53;;
49758;SDS011;35654;46.080;11.118;2023-01-29T13:06:41;6.43;;;4.45;;
49758;SDS011;35654;46.080;11.118;2023-01-29T13:09:21;8.27;;;4.68;;
49758;SDS011;35654;46.080;11.118;2023-01-29T13:12:00;6.95;;;4.75;;
49758;SDS011;35654;46.080;11.118;2023-01-29T13:14:43;7.28;;;4.88;;
49758;SDS011;35654;46.080;11.118;2023-01-29T13:19:59;11.30;;;5.43;;
49758;SDS011;35654;46.080;11.118;2023-01-29T13:22:33;9.93;;;5.10;;
49758;SDS011;35654;46.080;11.118;2023-01-29T13:25:03;8.18;;;4.97;;
49758;SDS011;35654;46.080;11.118;2023-01-29T13:27:32;6.65;;;4.80;;
49758;SDS011;35654;46.080;11.118;2023-01-29T13:30:00;6.88;;;4.68;;
49758;SDS011;35654;46.080;11.118;2023-01-29T13:32:28;7.20;;;4.95;;
49758;SDS011;35654;46.080;11.118;2023-01-29T13:35:01;9.30;;;4.97;;
49758;SDS011;35654;46.080;11.118;2023-01-29T13:37:45;8.98;;;5.30;;
49758;SDS011;35654;46.080;11.118;2023-01-29T13:40:22;8.60;;;5.40;;
49758;SDS011;35654;46.080;11.118;2023-01-29T13:42:51;7.93;;;5.00;;
49758;SDS011;35654;46.080;11.118;2023-01-29T13:45:26;6.88;;;4.90;;
49758;SDS011;35654;46.080;11.118;2023-01-29T13:53:59;7.95;;;5.47;;
49758;SDS011;35654;46.080;11.118;2023-01-29T13:58:58;7.72;;;5.25;;
49758;SDS011;35654;46.080;11.118;2023-01-29T14:04:23;6.80;;;4.85;;
49758;SDS011;35654;46.080;11.118;2023-01-29T14:07:00;7.72;;;4.97;;
49758;SDS011;35654;46.080;11.118;2023-01-29T14:12:03;9.35;;;5.30;;
49758;SDS011;35654;46.080;11.118;2023-01-29T14:15:03;9.88;;;4.82;;
49758;SDS011;35654;46.080;11.118;2023-01-29T14:18:02;8.23;;;5.13;;
49758;SDS011;35654;46.080;11.118;2023-01-29T14:20:38;7.25;;;5.07;;
49758;SDS011;35654;46.080;11.118;2023-01-29T14:23:06;7.45;;;5.25;;
49758;SDS011;35654;46.080;11.118;2023-01-29T14:25:45;8.20;;;5.55;;
49758;SDS011;35654;46.080;11.118;2023-01-29T14:28:18;8.02;;;5.20;;
49758;SDS011;35654;46.080;11.118;2023-01-29T14:30:48;8.07;;;4.97;;
49758;SDS011;35654;46.080;11.118;2023-01-29T14:36:11;7.63;;;5.63;;
49758;SDS011;35654;46.080;11.118;2023-01-29T14:38:39;8.10;;;5.28;;
49758;SDS011;35654;46.080;11.118;2023-01-29T14:41:30;10.00;;;5.93;;
49758;SDS011;35654;46.080;11.118;2023-01-29T14:47:03;15.57;;;6.72;;
49758;SDS011;35654;46.080;11.118;2023-01-29T14:52:28;12.10;;;6.65;;
49758;SDS011;35654;46.080;11.118;2023-01-29T14:58:04;13.25;;;6.00;;
49758;SDS011;35654;46.080;11.118;2023-01-29T15:00:40;11.70;;;6.70;;
49758;SDS011;35654;46.080;11.118;2023-01-29T15:03:18;16.70;;;9.05;;
49758;SDS011;35654;46.080;11.118;2023-01-29T15:05:53;29.60;;;13.45;;
49758;SDS011;35654;46.080;11.118;2023-01-29T15:08:27;23.25;;;11.98;;
49758;SDS011;35654;46.080;11.118;2023-01-29T15:11:03;24.00;;;11.18;;
49758;SDS011;35654;46.080;11.118;2023-01-29T15:19:48;16.83;;;8.60;;
49758;SDS011;35654;46.080;11.118;2023-01-29T15:22:18;22.02;;;9.85;;
49758;SDS011;35654;46.080;11.118;2023-01-29T15:24:47;17.77;;;8.50;;
49758;SDS011;35654;46.080;11.118;2023-01-29T15:27:32;23.45;;;11.20;;
49758;SDS011;35654;46.080;11.118;2023-01-29T15:30:00;17.23;;;7.25;;
49758;SDS011;35654;46.080;11.118;2023-01-29T15:32:35;11.82;;;6.78;;
49758;SDS011;35654;46.080;11.118;2023-01-29T15:35:25;14.98;;;6.15;;
49758;SDS011;35654;46.080;11.118;2023-01-29T15:38:22;41.92;;;19.90;;
49758;SDS011;35654;46.080;11.118;2023-01-29T15:41:12;22.80;;;10.02;;
49758;SDS011;35654;46.080;11.118;2023-01-29T15:43:50;14.95;;;7.78;;
49758;SDS011;35654;46.080;11.118;2023-01-29T15:46:27;17.08;;;6.90;;
49758;SDS011;35654;46.080;11.118;2023-01-29T15:48:59;13.90;;;6.97;;
49758;SDS011;35654;46.080;11.118;2023-01-29T15:51:30;16.35;;;7.53;;
49758;SDS011;35654;46.080;11.118;2023-01-29T15:54:02;19.17;;;7.57;;
49758;SDS011;35654;46.080;11.118;2023-01-29T15:56:31;12.52;;;6.80;;
49758;SDS011;35654;46.080;11.118;2023-01-29T15:59:02;19.73;;;8.05;;
49758;SDS011;35654;46.080;11.118;2023-01-29T16:01:30;16.90;;;7.88;;
49758;SDS011;35654;46.080;11.118;2023-01-29T16:03:56;19.00;;;9.07;;
49758;SDS011;35654;46.080;11.118;2023-01-29T16:06:36;20.45;;;8.57;;
49758;SDS011;35654;46.080;11.118;2023-01-29T16:09:06;18.23;;;7.85;;
49758;SDS011;35654;46.080;11.118;2023-01-29T16:11:33;15.77;;;8.68;;
49758;SDS011;35654;46.080;11.118;2023-01-29T16:14:01;22.00;;;9.00;;
49758;SDS011;35654;46.080;11.118;2023-01-29T16:16:30;23.67;;;8.80;;
49758;SDS011;35654;46.080;11.118;2023-01-29T16:21:37;20.00;;;8.32;;
49758;SDS011;35654;46.080;11.118;2023-01-29T16:24:10;18.05;;;8.30;;
49758;SDS011;35654;46.080;11.118;2023-01-29T16:26:45;26.95;;;10.85;;
49758;SDS011;35654;46.080;11.118;2023-01-29T16:29:19;23.90;;;10.10;;
49758;SDS011;35654;46.080;11.118;2023-01-29T16:31:49;25.45;;;10.80;;
49758;SDS011;35654;46.080;11.118;2023-01-29T16:34:27;17.88;;;8.93;;
49758;SDS011;35654;46.080;11.118;2023-01-29T16:36:58;21.00;;;8.90;;
49758;SDS011;35654;46.080;11.118;2023-01-29T16:39:29;18.73;;;8.50;;
49758;SDS011;35654;46.080;11.118;2023-01-29T16:44:38;23.38;;;9.93;;
49758;SDS011;35654;46.080;11.118;2023-01-29T16:47:19;23.77;;;10.65;;
49758;SDS011;35654;46.080;11.118;2023-01-29T16:49:52;22.25;;;9.77;;
49758;SDS011;35654;46.080;11.118;2023-01-29T16:52:30;76.10;;;29.80;;
49758;SDS011;35654;46.080;11.118;2023-01-29T16:55:13;35.67;;;11.63;;
49758;SDS011;35654;46.080;11.118;2023-01-29T16:57:46;26.13;;;11.63;;
49758;SDS011;35654;46.080;11.118;2023-01-29T17:00:26;25.30;;;12.45;;
49758;SDS011;35654;46.080;11.118;2023-01-29T17:02:58;22.00;;;10.85;;
49758;SDS011;35654;46.080;11.118;2023-01-29T17:05:29;24.20;;;10.60;;
49758;SDS011;35654;46.080;11.118;2023-01-29T17:07:58;22.75;;;11.05;;
49758;SDS011;35654;46.080;11.118;2023-01-29T17:10:26;22.67;;;10.88;;
49758;SDS011;35654;46.080;11.118;2023-01-29T17:12:54;24.60;;;10.88;;
49758;SDS011;35654;46.080;11.118;2023-01-29T17:15:45;27.77;;;11.50;;
49758;SDS011;35654;46.080;11.118;2023-01-29T17:18:22;26.85;;;11.75;;
49758;SDS011;35654;46.080;11.118;2023-01-29T17:23:15;37.35;;;18.52;;
49758;SDS011;35654;46.080;11.118;2023-01-29T17:25:41;34.85;;;14.80;;
49758;SDS011;35654;46.080;11.118;2023-01-29T17:28:08;34.73;;;14.90;;
49758;SDS011;35654;46.080;11.118;2023-01-29T17:30:38;29.02;;;12.95;;
49758;SDS011;35654;46.080;11.118;2023-01-29T17:33:17;24.42;;;11.27;;
49758;SDS011;35654;46.080;11.118;2023-01-29T17:35:47;27.25;;;12.35;;
49758;SDS011;35654;46.080;11.118;2023-01-29T17:38:14;23.73;;;11.13;;
49758;SDS011;35654;46.080;11.118;2023-01-29T17:43:11;22.38;;;10.70;;
49758;SDS011;35654;46.080;11.118;2023-01-29T17:45:37;29.27;;;11.52;;
49758;SDS011;35654;46.080;11.118;2023-01-29T17:48:04;25.92;;;11.77;;
49758;SDS011;35654;46.080;11.118;2023-01-29T17:50:39;23.70;;;10.98;;
49758;SDS011;35654;46.080;11.118;2023-01-29T17:53:07;26.85;;;11.10;;
49758;SDS011;35654;46.080;11.118;2023-01-29T17:55:33;25.23;;;10.90;;
49758;SDS011;35654;46.080;11.118;2023-01-29T17:58:01;24.67;;;12.05;;
49758;SDS011;35654;46.080;11.118;2023-01-29T18:02:54;19.02;;;10.25;;
49758;SDS011;35654;46.080;11.118;2023-01-29T18:05:23;22.60;;;10.75;;
49758;SDS011;35654;46.080;11.118;2023-01-29T18:10:18;18.95;;;9.25;;
49758;SDS011;35654;46.080;11.118;2023-01-29T18:12:46;22.30;;;9.30;;
49758;SDS011;35654;46.080;11.118;2023-01-29T18:15:13;22.98;;;9.50;;
49758;SDS011;35654;46.080;11.118;2023-01-29T18:20:17;30.77;;;10.32;;
49758;SDS011;35654;46.080;11.118;2023-01-29T18:22:46;21.73;;;10.05;;
49758;SDS011;35654;46.080;11.118;2023-01-29T18:27:38;26.83;;;10.00;;
49758;SDS011;35654;46.080;11.118;2023-01-29T18:30:05;23.05;;;10.30;;
49758;SDS011;35654;46.080;11.118;2023-01-29T18:32:33;23.17;;;10.68;;
49758;SDS011;35654;46.080;11.118;2023-01-29T18:35:00;22.35;;;10.68;;
49758;SDS011;35654;46.080;11.118;2023-01-29T18:37:27;21.40;;;10.05;;
49758;SDS011;35654;46.080;11.118;2023-01-29T18:39:54;26.83;;;10.13;;
49758;SDS011;35654;46.080;11.118;2023-01-29T18:42:21;59.03;;;24.75;;
49758;SDS011;35654;46.080;11.118;2023-01-29T18:44:47;39.00;;;14.18;;